Stratford, Wisconsin
Current Conditions -  °F | °C
As of 12:54 PM on Friday 21 Nov 2014 (Local Time) from KMFI Reporting Station
Clear Clear  
Wind Chill: 11°   Ceiling: Unl
Heat Index: 24°   Visibility: 10mi
Dew Point:   Wind: 15mph
Humidity: 38%   Direction: 200°SSW
Pressure: 30.19"   Gusts: NA
Location:  44.8°N, 90.08°W
Report Text: KMFI 211854Z AUTO 20013KT 10SM CLR M04/M17 A3019 RMK AO2 SLP252 T10441167
Loading
Personal Weather Stations






























Interactive Weather Map New forecast layout! Learn more

10-Day Weather Forecast

Advertisements
Track Severe Weather on mobile